Weather at Kopaida Dimitra Airfield

Public forecast

Using degrees Celsius for public forecast. Weather courtesy of forecast.io.

Closest aviation weather report (METAR) to Kopaida Dimitra Airfield

Closest report is Tanagra Air Base, 21.4 nm (39.7 km) ESE.

2024/07/20 21:50 (retrieved 12 minutes ago)

LGTG 202150Z 29005KT CAVOK 22/09 Q1008 BLU

Closest aviation forecast (TAF) to Kopaida Dimitra Airfield

Closest forecast is Elefsis Air Base, 30.8 nm (57.1 km) SE.

2024/07/20 18:13 (retrieved 4 hours ago)

TAF LGEL 201700Z 2018/2118 35012KT CAVOK BECMG 2020/2022 VRB05KT BECMG 2107/2109 17010KT 9999 FEW030